Hlavní strana
METAR-TAF:

METAR-TAF

Letiště :

N'Djamena, Čad

zeměpisná šířka: 12-08N, zeměpisná délka: 015-02E, výška: 295 m

Aktuální stav počasí

Zpráva byla vytvořena před 36 minutami, v 22:00 UTC
Severoseverovýchodní vítr 7 kt
Teplota 25°C
Vlhkost vzduchu 26%
Tlak 1011 hPa
Viditelnost: 8000 m

METAR: FTTJ 222200Z 02007KT 8000 NSC 25/04 Q1011 NOSIG

Čas: 23:36 (22:36 UTC)

Předpověď počasí

Zpráva byla vytvořena před 5 hodinami a 36 minutami, v 17:00 UTC
Předpověď platná od 22 v 18 UTC do 23 v 24 UTC
Severoseverovýchodní vítr 5 kt
Viditelnost: 7000 m
Dočasný
od 23 v 05 UTC do 23 v 08 UTC
Viditelnost: 4000 m
rozsáhlý prach
Změna
od 23 v 06 UTC do 23 v 08 UTC
Východní vítr 14 kt
Změna
od 23 v 15 UTC do 23 v 17 UTC
Severoseverovýchodní vítr 6 kt

TAF: FTTJ 221700Z 2218/2324 02005KT 7000 NSC TEMPO 2305/2308 4000 DU BECMG 2306/2308 08014KT BECMG 2315/2317 02006KT

Stav a předpovědi počasí z více než 4 000 letišť (zprávy METAR a TAF).

Červené a žluté tečky na mapě představují dostupné meteorologické stanice.

Když kurzor umístíte na tečku, zobrazí se název stanice.

Pak kliknutím zobrazíte stav a předpověď počasí.

Chcete-li změnit mapu, kliknutím na zelené tlačítko se znaménkem +mapu přiblížíte, kliknutím na zelené tlačítko se znaménkem – mapu oddálíte a kliknutím na zelené šipky přejdete na sousední mapy.


METAR-TAF: